Airfield :
LOGIN :

Register | Disclaimer

   EN    FR    IT 

 










Legend :    VFR   Marginal VFR   IFR   Intensive IFR   Very Intensive IFR
Visi :
Ceiling :
>= 8 km
>= 3000ft
5 to 8 km
1000 to 3000 ft
1500m to 5 km
500 to 1000 ft
800 to 1500m
200 to 500 ft
< 800m
< 200 ft
Symbols :   Thunderstorms  Fog  Heavy snow  Heavy precipitations  Wind > 20 kt
SIGMETs :     Misc.  Thunderstorms  Icing  Turbulence  Mountain Waves  Volcanic Ashes






- Airport Elevation : 280 ft
- IATA code : FAE


EKVG - Vagar

CURRENT METAR :
  • 090620Z AUTO 10017KT 9999 -RA SCT016/// OVC043/// 05/03 Q0991 RMK BKN015/// OVC041/// WIND SKEID 12027KT

EXPIRED METARs :
  • 090550Z AUTO 10018KT 9999 -RA SCT018/// BKN049/// OVC056/// 05/03 Q0991 RMK OVC015/// WIND SKEID 12031KT
  • 090520Z AUTO 10018KT 9999 -RA OVC019/// 05/03 Q0991 RMK BKN016/// OVC063/// WIND SKEID 11028KT
  • 090450Z AUTO 10016KT 9999 -RA OVC021/// 05/03 Q0992 RMK OVC017/// WIND SKEID 12026KT
  • 090420Z AUTO 10018KT 9999 -RA BKN025/// BKN084/// 05/03 Q0992 RMK BKN018/// OVC045/// WIND SKEID 12031KT
  • 090350Z AUTO 10017KT 9999 -RA SCT024/// BKN026/// BKN068/// BKN086/// 05/02 Q0993 RMK OVC018/// WIND SKEID 12028KT

TAF TAF EKVG
Valid from the 09 at 06:00 until the 09 at 15:00 UTC


090514Z 0906/0915 10018KT 9999 BKN024 OVC045
TEMPO 0906/0915 SHRA BKN014
BECMG 0911/0913 13008KT



MET'MAP, your aeronautical weather chart ! - Copyright ORBIFLY December 2007 - Disclaimer

ORBIFLY MET'MAP TEAM :

Programming & Development : Alexandra Zaïnal
Concept & original design : Baudouin d'Aumeries
Assistance for programming : Marc-Olivier Méhu
Technical & hardware support : Manuel Goepfert

Contact : metmap@orbifly.com




SOURCES & CREDITS :

   NOAA